Time;durP1;ratioP1;P1;durP2;ratioP2;P2;SDS_P1;SDS_P2;PMS_P1;PMS_P2;Temp;Humidity;BMP_temperature;BMP_pressure;BME280_temperature;BME280_humidity;BME280_pressure;Samples;Min_cycle;Max_cycle;Signal;HPM_P1;HPM_P2
2022/09/13 00:01:47;;;;;;;0.90;0.77;;;;;;;19.78;56.20;100495.69;5204581;28;20036;-86
2022/09/13 00:04:18;;;;;;;0.30;0.30;;;;;;;19.74;56.21;100489.75;5209889;28;20032;-86
2022/09/13 00:06:48;;;;;;;0.30;0.30;;;;;;;19.74;56.12;100479.09;5208671;28;20067;-86
2022/09/13 00:09:18;;;;;;;0.30;0.30;;;;;;;19.67;56.47;100477.81;5246741;28;20032;-86
2022/09/13 00:11:50;;;;;;;0.43;0.43;;;;;;;19.65;56.72;100475.28;5244025;28;20040;-85
2022/09/13 00:14:20;;;;;;;0.30;0.30;;;;;;;19.68;56.08;100468.88;5212022;28;20111;-86
2022/09/13 00:16:51;;;;;;;0.28;0.28;;;;;;;19.69;55.99;100459.06;5226378;28;20115;-85
2022/09/13 00:19:22;;;;;;;2.72;0.55;;;;;;;19.67;56.21;100461.84;5213765;28;20046;-86
2022/09/13 00:21:52;;;;;;;0.28;0.28;;;;;;;19.63;56.04;100471.00;5227277;28;20090;-86
2022/09/13 00:24:22;;;;;;;0.20;0.20;;;;;;;19.58;56.29;100475.78;5213365;28;20529;-86
2022/09/13 00:26:53;;;;;;;1.50;0.68;;;;;;;19.55;56.02;100474.19;5225430;28;20040;-86
2022/09/13 00:29:24;;;;;;;0.25;0.25;;;;;;;19.57;56.04;100479.41;5219912;28;20059;-86
2022/09/13 00:31:54;;;;;;;0.82;0.75;;;;;;;19.51;56.24;100478.00;5198176;28;20136;-86
2022/09/13 00:34:25;;;;;;;0.20;0.20;;;;;;;19.53;56.20;100476.09;5199360;28;20082;-86
2022/09/13 00:36:55;;;;;;;0.40;0.40;;;;;;;19.51;56.20;100475.34;5236101;28;20036;-86
2022/09/13 00:39:26;;;;;;;0.38;0.38;;;;;;;19.45;56.37;100474.00;5226446;28;20034;-86
2022/09/13 00:41:56;;;;;;;0.95;0.70;;;;;;;19.48;56.10;100465.78;5235758;28;20063;-85
2022/09/13 00:44:46;;;;;;;0.30;0.30;;;;;;;19.42;56.74;100466.22;5210259;28;20064;-85
2022/09/13 00:47:29;;;;;;;0.38;0.38;;;;;;;19.46;56.59;100475.66;5222809;28;20127;-85
2022/09/13 00:50:09;;;;;;;0.25;0.25;;;;;;;19.45;56.76;100467.81;5238642;28;20040;-85
2022/09/13 00:52:41;;;;;;;0.40;0.40;;;;;;;19.44;56.13;100469.63;5208952;28;20040;-86
2022/09/13 00:55:42;;;;;;;0.20;0.20;;;;;;;19.46;56.40;100464.19;5210165;28;20226;-85
2022/09/13 00:58:20;;;;;;;0.30;0.30;;;;;;;19.42;56.34;100463.53;5240694;28;20413;-85
2022/09/13 01:00:52;;;;;;;0.90;0.90;;;;;;;19.46;56.44;100464.19;5243184;28;20103;-85
2022/09/13 01:03:26;;;;;;;0.50;0.50;;;;;;;19.41;56.56;100467.16;5206416;28;20040;-86
2022/09/13 01:06:02;;;;;;;0.57;0.57;;;;;;;19.36;56.48;100463.97;5213828;28;20031;-86
2022/09/13 01:08:36;;;;;;;0.30;0.30;;;;;;;19.41;56.91;100463.66;5207633;28;20043;-86
2022/09/13 01:11:13;;;;;;;0.20;0.20;;;;;;;19.31;57.21;100460.75;5205353;28;20093;-86
2022/09/13 01:13:46;;;;;;;0.40;0.40;;;;;;;19.31;57.14;100456.31;5208695;28;20036;-86
2022/09/13 01:16:16;;;;;;;0.20;0.20;;;;;;;19.26;57.10;100462.88;5222816;28;20036;-86
2022/09/13 01:18:47;;;;;;;0.45;0.45;;;;;;;19.25;56.95;100451.41;5224686;28;20096;-86
2022/09/13 01:21:39;;;;;;;0.25;0.25;;;;;;;19.31;56.52;100455.44;5205591;28;20394;-86
2022/09/13 01:24:31;;;;;;;0.60;0.60;;;;;;;19.31;56.65;100447.47;5208120;28;20541;-86
2022/09/13 01:27:35;;;;;;;0.20;0.20;;;;;;;19.31;56.74;100450.13;5252339;28;20044;-86
2022/09/13 01:30:10;;;;;;;0.30;0.30;;;;;;;19.36;56.66;100450.69;5166100;28;20491;-86
2022/09/13 01:33:11;;;;;;;0.32;0.32;;;;;;;19.27;56.85;100456.63;5243040;28;20442;-86
2022/09/13 01:35:47;;;;;;;0.20;0.20;;;;;;;19.29;56.87;100452.06;5208667;28;20040;-86
2022/09/13 01:38:36;;;;;;;0.30;0.30;;;;;;;19.29;56.69;100446.72;5224876;28;20124;-86
2022/09/13 01:41:16;;;;;;;0.30;0.30;;;;;;;19.24;56.89;100451.50;5237250;28;20131;-86
2022/09/13 01:44:05;;;;;;;0.32;0.32;;;;;;;19.24;56.65;100449.69;5226378;28;20550;-86
2022/09/13 01:46:48;;;;;;;0.30;0.30;;;;;;;19.21;57.28;100441.09;5217875;28;20120;-86
2022/09/13 01:49:24;;;;;;;0.65;0.57;;;;;;;19.25;56.36;100439.91;5223680;28;20111;-86
2022/09/13 01:52:10;;;;;;;0.28;0.28;;;;;;;19.17;57.18;100430.63;5226022;28;20123;-86
2022/09/13 01:55:07;;;;;;;0.32;0.32;;;;;;;19.15;57.04;100435.19;5230620;28;20039;-86
2022/09/13 01:57:47;;;;;;;0.43;0.43;;;;;;;19.13;57.33;100434.44;5222556;28;20502;-86
2022/09/13 02:00:18;;;;;;;0.40;0.40;;;;;;;19.14;56.91;100433.50;5208716;28;20093;-86
2022/09/13 02:02:52;;;;;;;0.30;0.30;;;;;;;19.19;57.12;100434.06;5215655;28;20393;-86
2022/09/13 02:05:32;;;;;;;3.20;1.33;;;;;;;19.11;57.38;100436.38;5204783;28;20097;-86
2022/09/13 02:08:12;;;;;;;0.50;0.50;;;;;;;19.13;57.03;100428.28;5221149;28;20598;-86
2022/09/13 02:10:52;;;;;;;0.35;0.35;;;;;;;19.15;57.02;100431.72;5206620;28;20402;-86
2022/09/13 02:13:28;;;;;;;0.47;0.47;;;;;;;19.11;57.18;100431.06;5205687;28;20040;-86
2022/09/13 02:16:07;;;;;;;0.30;0.30;;;;;;;19.13;57.20;100436.28;5238840;28;20029;-86
2022/09/13 02:18:42;;;;;;;0.30;0.30;;;;;;;19.10;57.59;100420.50;5204153;28;20460;-86
2022/09/13 02:21:28;;;;;;;0.25;0.25;;;;;;;19.09;57.31;100417.00;5231285;28;20047;-86
2022/09/13 02:24:16;;;;;;;0.20;0.20;;;;;;;19.08;57.39;100412.66;5239654;28;20483;-86
2022/09/13 02:26:51;;;;;;;0.20;0.20;;;;;;;19.04;57.66;100413.81;5214175;28;20325;-86
2022/09/13 02:29:27;;;;;;;0.25;0.25;;;;;;;19.09;57.22;100421.50;5212477;28;20306;-85
2022/09/13 02:32:19;;;;;;;1.25;0.57;;;;;;;19.09;57.00;100419.69;5245468;28;20382;-86
2022/09/13 02:34:58;;;;;;;0.57;0.57;;;;;;;19.05;57.43;100420.81;5226663;28;20032;-86
2022/09/13 02:37:33;;;;;;;0.50;0.50;;;;;;;19.03;57.83;100420.09;5205284;28;20048;-86
2022/09/13 02:40:09;;;;;;;5.78;1.30;;;;;;;19.06;57.21;100422.53;5220570;28;20025;-86
2022/09/13 02:42:43;;;;;;;0.30;0.30;;;;;;;19.10;57.06;100425.84;5206625;28;20040;-86
2022/09/13 02:45:14;;;;;;;0.30;0.30;;;;;;;19.10;57.38;100424.03;5213974;28;20119;-86
2022/09/13 02:48:03;;;;;;;0.30;0.30;;;;;;;19.06;57.77;100419.88;5194467;28;20036;-85
2022/09/13 02:50:52;;;;;;;0.55;0.55;;;;;;;19.11;57.23;100423.09;5239516;28;20036;-86
2022/09/13 02:53:41;;;;;;;0.70;0.70;;;;;;;19.14;57.40;100428.19;5198300;28;20116;-85
2022/09/13 02:56:15;;;;;;;0.20;0.20;;;;;;;19.08;57.54;100417.97;5204381;28;20046;-85
2022/09/13 02:58:47;;;;;;;0.50;0.50;;;;;;;19.12;57.23;100429.25;5221331;28;20539;-85
2022/09/13 03:01:20;;;;;;;0.30;0.30;;;;;;;19.14;57.26;100428.19;5203675;28;20257;-86
2022/09/13 03:03:53;;;;;;;0.45;0.45;;;;;;;19.08;57.39;100433.09;5218400;28;20494;-86
2022/09/13 03:06:25;;;;;;;0.30;0.30;;;;;;;19.09;57.66;100429.47;5195281;28;20046;-87
2022/09/13 03:08:59;;;;;;;1.45;0.60;;;;;;;19.05;57.49;100428.78;5200210;28;20111;-86
2022/09/13 03:11:29;;;;;;;0.30;0.30;;;;;;;19.08;57.38;100430.41;5194914;28;20119;-86
2022/09/13 03:14:12;;;;;;;0.20;0.20;;;;;;;19.06;57.71;100435.00;5210348;28;20136;-85
2022/09/13 03:16:55;;;;;;;0.20;0.20;;;;;;;19.02;58.00;100435.19;5215304;28;20093;-86
2022/09/13 03:19:54;;;;;;;0.53;0.53;;;;;;;19.04;57.91;100427.13;5224981;28;20149;-86
2022/09/13 03:22:42;;;;;;;0.50;0.50;;;;;;;19.06;57.77;100427.00;5201560;28;20278;-86
2022/09/13 03:25:19;;;;;;;0.45;0.45;;;;;;;19.05;58.07;100427.97;5241588;28;20119;-86
2022/09/13 03:28:02;;;;;;;0.30;0.30;;;;;;;19.09;57.76;100422.34;5233582;28;20040;-86
2022/09/13 03:30:37;;;;;;;0.30;0.30;;;;;;;19.11;57.36;100422.22;5210764;28;20127;-85
2022/09/13 03:33:36;;;;;;;0.30;0.30;;;;;;;19.07;58.02;100418.91;5222996;28;20043;-87
2022/09/13 03:36:26;;;;;;;0.43;0.43;;;;;;;19.10;57.55;100412.53;5222778;28;20075;-86
2022/09/13 03:39:16;;;;;;;0.95;0.93;;;;;;;19.10;57.79;100410.75;5242375;28;20047;-86
2022/09/13 03:41:53;;;;;;;0.40;0.40;;;;;;;19.12;57.54;100398.22;5223623;28;20095;-86
2022/09/13 03:44:26;;;;;;;0.60;0.60;;;;;;;19.10;58.08;100410.75;5233515;28;20032;-86
2022/09/13 03:47:01;;;;;;;0.28;0.28;;;;;;;19.08;57.76;100407.34;5252014;28;20410;-86
2022/09/13 03:49:32;;;;;;;0.45;0.45;;;;;;;19.06;58.19;100406.56;5231176;28;20111;-85
2022/09/13 03:52:03;;;;;;;0.30;0.30;;;;;;;19.05;57.86;100406.69;5211151;28;20098;-86
2022/09/13 03:54:37;;;;;;;0.32;0.32;;;;;;;19.07;57.91;100407.44;5232004;28;20024;-86
2022/09/13 03:57:10;;;;;;;0.30;0.30;;;;;;;19.07;58.31;100405.63;5220588;28;20067;-86
2022/09/13 03:59:59;;;;;;;0.50;0.50;;;;;;;19.07;58.24;100410.09;5234998;28;20048;-86
2022/09/13 04:02:30;;;;;;;0.93;0.82;;;;;;;19.06;58.30;100416.38;5258934;28;20028;-86
2022/09/13 04:05:00;;;;;;;0.30;0.30;;;;;;;19.03;58.89;100412.97;5248604;28;20028;-85
2022/09/13 04:07:31;;;;;;;0.40;0.40;;;;;;;19.02;58.63;100413.06;5222095;28;20143;-86
2022/09/13 04:10:01;;;;;;;4.57;1.95;;;;;;;19.07;58.24;100418.09;5255942;28;20028;-86
2022/09/13 04:12:32;;;;;;;0.47;0.35;;;;;;;19.08;58.03;100414.47;5211345;28;20028;-86
2022/09/13 04:15:03;;;;;;;0.55;0.55;;;;;;;19.08;58.58;100406.50;5222631;28;20076;-86
2022/09/13 04:17:35;;;;;;;0.45;0.45;;;;;;;19.11;58.13;100408.91;5220080;28;20060;-86
2022/09/13 04:20:05;;;;;;;0.20;0.20;;;;;;;19.10;58.60;100410.75;5253996;28;20509;-87
2022/09/13 04:22:36;;;;;;;0.30;0.30;;;;;;;19.08;58.46;100415.31;5216256;28;20044;-86
2022/09/13 04:25:07;;;;;;;0.85;0.47;;;;;;;19.08;58.35;100412.66;5210398;28;20483;-86
2022/09/13 04:27:38;;;;;;;0.50;0.50;;;;;;;19.04;58.96;100411.16;5207174;28;20044;-85
2022/09/13 04:30:09;;;;;;;0.20;0.20;;;;;;;19.02;59.10;100411.25;5233300;28;20032;-85
2022/09/13 04:32:43;;;;;;;0.40;0.40;;;;;;;18.99;59.64;100406.16;5212573;28;20066;-85
2022/09/13 04:35:16;;;;;;;0.25;0.25;;;;;;;19.04;59.03;100411.16;5239459;28;20063;-85
2022/09/13 04:37:46;;;;;;;;;;;;;;;18.98;59.57;100422.19;5216978;28;20124;-85
2022/09/13 04:40:17;;;;;;;0.40;0.40;;;;;;;18.96;60.42;100422.31;5231114;28;20006;-85
2022/09/13 04:42:48;;;;;;;0.55;0.55;;;;;;;18.98;59.69;100422.19;5227343;28;20032;-85
2022/09/13 04:45:21;;;;;;;2.53;0.68;;;;;;;18.97;59.67;100425.81;5220590;28;20051;-86
2022/09/13 04:47:54;;;;;;;0.40;0.40;;;;;;;19.01;59.38;100427.31;5215127;28;20028;-85
2022/09/13 04:50:24;;;;;;;1.60;0.87;;;;;;;19.02;59.15;100434.34;5243973;28;20028;-86
2022/09/13 04:52:55;;;;;;;0.35;0.35;;;;;;;18.95;59.15;100425.09;5211387;28;20028;-86
2022/09/13 04:55:25;;;;;;;0.35;0.35;;;;;;;18.97;59.14;100429.34;5230055;28;20039;-86
2022/09/13 04:57:56;;;;;;;0.65;0.65;;;;;;;19.00;58.89;100425.59;5213798;28;20047;-86
2022/09/13 05:00:29;;;;;;;0.70;0.70;;;;;;;18.99;59.34;100429.22;5245239;28;20058;-86
2022/09/13 05:03:00;;;;;;;0.40;0.40;;;;;;;18.96;59.02;100419.66;5209024;28;20480;-86
2022/09/13 05:05:31;;;;;;;0.40;0.40;;;;;;;18.94;59.21;100429.53;5243772;28;20299;-86
2022/09/13 05:08:04;;;;;;;0.50;0.50;;;;;;;18.88;58.89;100428.09;5194232;28;20048;-86
2022/09/13 05:10:35;;;;;;;;;;;;;;;18.90;58.82;100430.66;5212406;28;20100;-86
2022/09/13 05:13:08;;;;;;;0.60;0.60;;;;;;;19.05;58.88;100427.97;5212916;28;20433;-85
2022/09/13 05:15:39;;;;;;;0.50;0.50;;;;;;;18.97;59.36;100415.16;5213042;28;20024;-85
2022/09/13 05:18:10;;;;;;;0.20;0.20;;;;;;;18.92;59.48;100403.97;5215934;28;20044;-87
2022/09/13 05:20:40;;;;;;;0.45;0.45;;;;;;;18.87;59.70;100406.94;5214091;28;20139;-86
2022/09/13 05:23:11;;;;;;;0.30;0.30;;;;;;;18.88;59.29;100420.13;5213447;28;20131;-86
2022/09/13 05:25:41;;;;;;;0.28;0.28;;;;;;;18.78;59.53;100421.72;5219055;28;20063;-86
2022/09/13 05:28:12;;;;;;;0.30;0.30;;;;;;;18.75;59.71;100421.06;5228918;28;20494;-85
2022/09/13 05:30:42;;;;;;;0.43;0.43;;;;;;;18.72;59.52;100432.72;5229327;28;20021;-86
2022/09/13 05:33:13;;;;;;;0.20;0.20;;;;;;;18.80;58.96;100438.38;5245232;28;20405;-85
2022/09/13 05:35:43;;;;;;;0.50;0.50;;;;;;;18.73;59.71;100434.44;5246341;28;20367;-86
2022/09/13 05:38:13;;;;;;;0.30;0.30;;;;;;;18.74;60.01;100436.13;5228467;28;20328;-86
2022/09/13 05:40:45;;;;;;;0.35;0.35;;;;;;;18.79;59.37;100439.38;5245728;28;20032;-86
2022/09/13 05:43:16;;;;;;;0.45;0.45;;;;;;;18.80;60.12;100437.53;5245610;28;20036;-86
2022/09/13 05:45:46;;;;;;;0.32;0.32;;;;;;;18.83;59.23;100430.22;5229542;28;20054;-86
2022/09/13 05:48:16;;;;;;;0.43;0.40;;;;;;;18.81;59.58;100420.66;5229234;28;20074;-86
2022/09/13 05:50:47;;;;;;;0.75;0.75;;;;;;;18.78;59.67;100424.38;5228709;28;20345;-86
2022/09/13 05:53:17;;;;;;;0.50;0.50;;;;;;;18.76;59.67;100430.75;5228274;28;20412;-86
2022/09/13 05:55:48;;;;;;;0.60;0.60;;;;;;;18.74;59.62;100432.66;5248929;28;20151;-85
2022/09/13 05:58:18;;;;;;;0.20;0.20;;;;;;;18.74;59.69;100424.66;5224314;28;20036;-85
2022/09/13 06:00:56;;;;;;;1.52;1.08;;;;;;;18.86;59.60;100422.06;5223369;28;20045;-86
2022/09/13 06:03:27;;;;;;;0.60;0.60;;;;;;;18.78;59.63;100431.47;5255304;28;20028;-86
2022/09/13 06:05:57;;;;;;;0.60;0.60;;;;;;;18.76;60.46;100428.91;5230812;28;20035;-86
2022/09/13 06:08:29;;;;;;;1.75;0.40;;;;;;;18.77;60.15;100430.63;5221628;28;20056;-86
2022/09/13 06:11:08;;;;;;;0.95;0.95;;;;;;;18.75;60.20;100426.38;5223633;28;20329;-85
2022/09/13 06:13:42;;;;;;;0.20;0.20;;;;;;;18.76;60.19;100442.22;5237917;28;20036;-85
2022/09/13 06:16:14;;;;;;;0.20;0.20;;;;;;;18.86;59.93;100438.00;5207970;28;20036;-85
2022/09/13 06:18:45;;;;;;;1.60;1.30;;;;;;;18.94;59.76;100437.50;5190954;28;20033;-85
2022/09/13 06:21:19;;;;;;;0.50;0.50;;;;;;;18.95;59.89;100428.56;5224154;28;20055;-86
2022/09/13 06:23:52;;;;;;;0.35;0.35;;;;;;;18.91;59.78;100436.81;5206975;28;20032;-86
2022/09/13 06:26:25;;;;;;;0.40;0.40;;;;;;;18.96;59.75;100430.28;5192998;28;20032;-84
2022/09/13 06:28:57;;;;;;;0.20;0.20;;;;;;;18.87;60.17;100434.38;5228809;28;20020;-86
2022/09/13 06:31:27;;;;;;;1.08;1.05;;;;;;;18.90;60.07;100430.66;5210032;28;20445;-86
2022/09/13 06:34:01;;;;;;;0.95;0.95;;;;;;;18.88;60.28;100445.84;5245300;28;20032;-86
2022/09/13 06:36:32;;;;;;;0.30;0.30;;;;;;;18.92;59.93;100443.84;5248292;28;20197;-87
2022/09/13 06:39:05;;;;;;;0.30;0.30;;;;;;;18.95;60.20;100443.69;5230192;28;20123;-87
2022/09/13 06:41:36;;;;;;;2.80;1.55;;;;;;;18.97;60.13;100441.75;5211501;28;20442;-88
2022/09/13 06:44:08;;;;;;;0.20;0.20;;;;;;;18.98;60.12;100422.19;5211984;28;20059;-87
2022/09/13 06:46:39;;;;;;;0.68;0.68;;;;;;;19.00;60.37;100420.28;5227236;28;20028;-87
2022/09/13 06:49:09;;;;;;;0.20;0.20;;;;;;;19.02;60.48;100423.72;5244859;28;20043;-87
2022/09/13 06:51:40;;;;;;;0.20;0.20;;;;;;;19.05;60.41;100422.66;5243366;28;20044;-87
2022/09/13 06:54:10;;;;;;;0.60;0.60;;;;;;;19.08;61.33;100428.59;5244679;28;20612;-87
2022/09/13 06:56:41;;;;;;;2.20;0.85;;;;;;;19.08;60.40;100428.59;5227446;28;20032;-86
2022/09/13 06:59:11;;;;;;;0.20;0.20;;;;;;;19.21;60.53;100428.63;5228457;28;20497;-86
2022/09/13 07:01:42;;;;;;;0.40;0.30;;;;;;;19.22;60.35;100416.16;5243528;28;20053;-87
2022/09/13 07:04:17;;;;;;;0.40;0.40;;;;;;;19.16;60.46;100423.63;5244828;28;20063;-86
2022/09/13 07:06:49;;;;;;;0.40;0.30;;;;;;;19.12;61.26;100427.47;5260927;28;20047;-86
2022/09/13 07:09:21;;;;;;;0.45;0.45;;;;;;;19.17;60.63;100421.81;5228759;28;20509;-86
2022/09/13 07:11:53;;;;;;;0.22;0.22;;;;;;;19.22;60.41;100429.47;5228386;28;20083;-86
2022/09/13 07:14:27;;;;;;;0.98;0.98;;;;;;;19.28;61.17;100426.41;5228935;28;20027;-85
2022/09/13 07:16:59;;;;;;;0.40;0.40;;;;;;;19.32;60.64;100430.53;5227667;28;20048;-86
2022/09/13 07:19:30;;;;;;;0.80;0.68;;;;;;;19.31;60.71;100426.19;5211908;28;20035;-86
2022/09/13 07:22:00;;;;;;;0.50;0.50;;;;;;;19.31;60.80;100424.38;5215653;28;20044;-86
2022/09/13 07:24:31;;;;;;;0.30;0.30;;;;;;;19.39;60.51;100429.16;5245581;28;20058;-86
2022/09/13 07:27:01;;;;;;;1.13;0.95;;;;;;;19.39;60.66;100431.81;5244152;28;20131;-86
2022/09/13 07:29:32;;;;;;;0.40;0.40;;;;;;;19.43;60.42;100433.34;5212200;28;20047;-86
2022/09/13 07:32:02;;;;;;;0.95;0.70;;;;;;;19.47;60.82;100424.16;5209448;28;20048;-86
2022/09/13 07:34:33;;;;;;;0.30;0.30;;;;;;;19.54;60.72;100423.75;5229067;28;20338;-86
2022/09/13 07:37:03;;;;;;;8.68;1.10;;;;;;;19.53;60.83;100425.56;5210460;28;20064;-86
2022/09/13 07:39:34;;;;;;;0.90;0.77;;;;;;;19.60;60.74;100428.66;5227962;28;20040;-86
2022/09/13 07:42:04;;;;;;;0.43;0.43;;;;;;;19.59;61.06;100432.25;5231865;28;20494;-86
2022/09/13 07:44:35;;;;;;;0.28;0.28;;;;;;;19.64;61.16;100440.75;5211391;28;20235;-85
2022/09/13 07:47:05;;;;;;;0.47;0.40;;;;;;;19.70;61.19;100440.34;5210465;28;20035;-86
2022/09/13 07:49:36;;;;;;;3.25;1.75;;;;;;;19.70;61.44;100440.34;5225826;28;20043;-86
2022/09/13 07:52:06;;;;;;;0.45;0.45;;;;;;;19.72;61.66;100441.06;5210221;28;20406;-86
2022/09/13 07:54:37;;;;;;;0.20;0.20;;;;;;;19.73;61.80;100437.47;5194679;28;20024;-86
2022/09/13 07:57:07;;;;;;;0.30;0.30;;;;;;;19.81;61.49;100443.09;5209280;28;20569;-86
2022/09/13 07:59:38;;;;;;;0.43;0.43;;;;;;;19.83;61.33;100445.66;5210901;28;20288;-86
2022/09/13 08:02:08;;;;;;;0.30;0.30;;;;;;;19.85;62.15;100438.44;5192016;28;20036;-86
2022/09/13 08:04:39;;;;;;;0.30;0.30;;;;;;;19.86;62.40;100447.28;5210912;28;20036;-86
2022/09/13 08:07:09;;;;;;;2.65;1.77;;;;;;;19.85;63.14;100450.91;5209908;28;20483;-86
2022/09/13 08:09:40;;;;;;;0.30;0.30;;;;;;;19.87;63.00;100441.00;5211825;28;20545;-86
2022/09/13 08:12:10;;;;;;;0.43;0.43;;;;;;;19.89;63.32;100442.59;5264462;28;20055;-86
2022/09/13 08:14:41;;;;;;;0.82;0.82;;;;;;;19.94;62.32;100444.94;5265773;28;20074;-86
2022/09/13 08:17:11;;;;;;;0.60;0.60;;;;;;;19.99;61.96;100448.13;5264141;28;20048;-87
2022/09/13 08:19:42;;;;;;;0.40;0.40;;;;;;;20.02;62.05;100445.25;5248805;28;20020;-86
2022/09/13 08:22:12;;;;;;;0.82;0.82;;;;;;;20.08;62.22;100454.63;5230730;28;20063;-86
2022/09/13 08:24:43;;;;;;;3.63;1.60;;;;;;;20.11;61.77;100454.38;5231673;28;20032;-86
2022/09/13 08:27:13;;;;;;;1.50;1.45;;;;;;;20.17;60.65;100450.44;5263920;28;20447;-87
2022/09/13 08:29:44;;;;;;;0.32;0.32;;;;;;;20.28;61.01;100458.50;5264989;28;20059;-86
2022/09/13 08:32:14;;;;;;;0.28;0.28;;;;;;;20.25;60.75;100456.88;5226395;28;20590;-86
2022/09/13 08:34:45;;;;;;;0.63;0.63;;;;;;;20.26;60.26;100455.09;5242512;28;20067;-86
2022/09/13 08:37:15;;;;;;;0.28;0.28;;;;;;;20.34;60.40;100458.06;5230155;28;20048;-86
2022/09/13 08:39:46;;;;;;;1.48;1.38;;;;;;;20.41;60.13;100455.81;5231605;28;20394;-86
2022/09/13 08:42:54;;;;;;;0.80;0.70;;;;;;;20.39;59.88;100460.38;5246701;28;20128;-86
2022/09/13 08:45:24;;;;;;;9.65;0.88;;;;;;;20.50;59.83;100464.94;5214801;28;20092;-86
2022/09/13 08:48:05;;;;;;;3.30;1.30;;;;;;;20.46;60.19;100458.97;5262948;28;20040;-86
2022/09/13 08:50:37;;;;;;;3.03;0.80;;;;;;;20.48;60.03;100462.38;5239173;28;20130;-86
2022/09/13 08:53:34;;;;;;;2.20;1.13;;;;;;;20.56;60.40;100454.69;5246349;28;20046;-86
2022/09/13 08:56:12;;;;;;;0.20;0.20;;;;;;;20.58;60.13;100454.56;5263236;28;20090;-86
2022/09/13 08:59:01;;;;;;;5.05;1.38;;;;;;;20.63;60.13;100456.88;5253076;28;20064;-86
2022/09/13 09:01:43;;;;;;;0.65;0.30;;;;;;;20.66;60.21;100454.00;5228273;28;20032;-86
2022/09/13 09:04:26;;;;;;;0.57;0.57;;;;;;;20.69;60.38;100454.63;5214046;28;20086;-86
2022/09/13 09:07:11;;;;;;;0.60;0.60;;;;;;;20.72;60.11;100449.03;5208750;28;20098;-86
2022/09/13 09:09:52;;;;;;;1.45;1.08;;;;;;;20.75;59.59;100454.19;5251324;28;20039;-86
2022/09/13 09:12:26;;;;;;;0.70;0.70;;;;;;;20.79;60.20;100453.94;5248365;28;20036;-86
2022/09/13 09:15:07;;;;;;;6.70;0.57;;;;;;;20.87;59.70;100451.56;5208813;28;20027;-86
2022/09/13 09:18:11;;;;;;;0.50;0.50;;;;;;;20.86;59.99;100449.88;5266340;28;20043;-86
2022/09/13 09:20:45;;;;;;;0.43;0.43;;;;;;;20.81;60.01;100446.69;5229260;28;20028;-86
2022/09/13 09:23:27;;;;;;;0.30;0.30;;;;;;;20.89;60.06;100446.97;5264135;28;20044;-86
2022/09/13 09:26:14;;;;;;;0.30;0.30;;;;;;;20.94;60.48;100447.50;5264022;28;20036;-87
2022/09/13 09:28:57;;;;;;;0.40;0.40;;;;;;;20.96;60.39;100455.38;5228174;28;20036;-86
2022/09/13 09:31:31;;;;;;;0.75;0.75;;;;;;;20.99;60.18;100439.97;5237153;28;20569;-86
2022/09/13 09:34:16;;;;;;;0.20;0.20;;;;;;;21.03;59.97;100440.59;5236684;28;20039;-86
2022/09/13 09:37:00;;;;;;;0.30;0.30;;;;;;;21.04;59.91;100450.31;5230895;28;20036;-86
2022/09/13 09:39:32;;;;;;;0.30;0.30;;;;;;;21.09;59.37;100441.94;5232882;28;20020;-86
2022/09/13 09:42:03;;;;;;;1.40;0.57;;;;;;;21.14;59.16;100450.44;5229944;28;20587;-86
2022/09/13 09:44:34;;;;;;;0.60;0.60;;;;;;;21.19;59.67;100449.13;5246692;28;20039;-87
2022/09/13 09:47:23;;;;;;;0.55;0.55;;;;;;;21.26;59.92;100446.84;5228979;28;20036;-86
2022/09/13 09:50:08;;;;;;;1.02;0.93;;;;;;;21.30;59.49;100447.47;5238094;28;20020;-86
2022/09/13 09:52:42;;;;;;;1.48;1.38;;;;;;;21.32;59.76;100449.03;5228929;28;20554;-86
2022/09/13 09:55:25;;;;;;;0.82;0.82;;;;;;;21.41;58.57;100449.31;5258700;28;20089;-86
2022/09/13 09:58:07;;;;;;;0.60;0.60;;;;;;;21.45;59.17;100446.28;5238463;28;20028;-86
2022/09/13 10:00:54;;;;;;;0.98;0.75;;;;;;;21.46;59.16;100442.66;5246825;28;20044;-87
2022/09/13 10:03:30;;;;;;;0.88;0.75;;;;;;;21.52;59.12;100441.31;5244333;28;20066;-86
2022/09/13 10:06:11;;;;;;;0.40;0.40;;;;;;;21.54;59.24;100442.03;5245445;28;20514;-86
2022/09/13 10:08:47;;;;;;;0.30;0.30;;;;;;;21.60;59.34;100446.94;5212809;28;20040;-86
2022/09/13 10:11:21;;;;;;;0.35;0.35;;;;;;;21.66;59.02;100445.59;5229078;28;20032;-87
2022/09/13 10:14:01;;;;;;;0.50;0.40;;;;;;;21.75;57.72;100436.88;5211065;28;20040;-86
2022/09/13 10:16:32;;;;;;;0.52;0.52;;;;;;;21.83;58.10;100438.94;5228364;28;20032;-86
2022/09/13 10:19:25;;;;;;;0.52;0.52;;;;;;;21.84;58.22;100441.47;5212774;28;20028;-86
2022/09/13 10:22:05;;;;;;;1.15;0.65;;;;;;;21.89;57.83;100441.13;5211671;28;20107;-87
2022/09/13 10:24:35;;;;;;;0.45;0.45;;;;;;;21.91;56.60;100433.84;5248907;28;20036;-86
2022/09/13 10:27:21;;;;;;;0.52;0.52;;;;;;;21.99;57.40;100427.88;5236634;28;20051;-87
2022/09/13 10:29:58;;;;;;;0.52;0.52;;;;;;;21.98;57.09;100432.38;5222767;28;20131;-86
2022/09/13 10:32:29;;;;;;;0.73;0.57;;;;;;;21.98;57.17;100436.88;5214317;28;20128;-86
2022/09/13 10:35:15;;;;;;;0.77;0.77;;;;;;;22.06;57.18;100433.56;5227444;28;20048;-86
2022/09/13 10:37:46;;;;;;;1.02;1.02;;;;;;;22.09;57.71;100428.84;5229521;28;20036;-86
2022/09/13 10:40:27;;;;;;;0.35;0.35;;;;;;;22.19;56.08;100420.09;5233315;28;20033;-86
2022/09/13 10:43:02;;;;;;;0.38;0.38;;;;;;;22.18;55.14;100432.59;5242947;28;20044;-86
2022/09/13 10:45:33;;;;;;;11.23;1.77;;;;;;;22.18;55.37;100427.25;5262196;28;20426;-86
2022/09/13 10:48:14;;;;;;;0.88;0.82;;;;;;;22.28;55.55;100425.50;5257544;28;20122;-86
2022/09/13 10:51:16;;;;;;;21.73;1.80;;;;;;;22.30;55.54;100426.25;5245436;28;20081;-86
2022/09/13 10:54:22;;;;;;;1.02;0.93;;;;;;;22.38;56.00;100417.63;5248340;28;20036;-87
2022/09/13 10:56:53;;;;;;;0.38;0.38;;;;;;;22.47;55.70;100422.25;5229804;28;20123;-86
2022/09/13 10:59:27;;;;;;;0.98;0.93;;;;;;;22.50;55.21;100421.13;5235153;28;20100;-86
2022/09/13 11:02:41;;;;;;;0.30;0.30;;;;;;;22.56;56.30;100420.63;5226644;28;20040;-86
2022/09/13 11:05:48;;;;;;;1.38;0.82;;;;;;;22.65;54.27;100408.31;5228648;28;20028;-86
2022/09/13 11:08:18;;;;;;;1.02;0.68;;;;;;;22.68;54.88;100416.06;5201675;28;20032;-85
2022/09/13 11:11:06;;;;;;;0.30;0.30;;;;;;;22.69;54.96;100408.91;5227596;28;20028;-86
2022/09/13 11:13:46;;;;;;;0.98;0.68;;;;;;;22.74;55.19;100407.53;5211808;28;20403;-86
2022/09/13 11:16:19;;;;;;;1.08;0.55;;;;;;;22.82;54.98;100408.72;5227980;28;20097;-87
2022/09/13 11:18:53;;;;;;;0.30;0.30;;;;;;;22.88;54.36;100408.22;5231476;28;20065;-85
2022/09/13 11:21:33;;;;;;;1.15;1.02;;;;;;;22.97;54.63;100398.56;5205335;28;20035;-85
2022/09/13 11:24:03;;;;;;;2.05;1.23;;;;;;;22.96;54.45;100392.38;5212811;28;20289;-85
2022/09/13 11:26:58;;;;;;;0.60;0.60;;;;;;;23.03;54.41;100392.69;5229067;28;20152;-85
2022/09/13 11:29:47;;;;;;;0.70;0.40;;;;;;;23.08;55.44;100382.44;5218241;28;20028;-85
2022/09/13 11:32:36;;;;;;;0.32;0.32;;;;;;;23.12;55.92;100375.84;5208607;28;20044;-86
2022/09/13 11:35:16;;;;;;;0.45;0.45;;;;;;;23.18;55.85;100377.19;5208796;28;20115;-86
2022/09/13 11:38:18;;;;;;;3.97;1.48;;;;;;;23.32;55.52;100384.03;5213983;28;20068;-86
2022/09/13 11:41:04;;;;;;;0.40;0.40;;;;;;;23.47;54.21;100377.34;5213351;28;20303;-85
2022/09/13 11:43:37;;;;;;;0.30;0.30;;;;;;;23.49;55.59;100372.69;5213593;28;20041;-85
2022/09/13 11:46:15;;;;;;;0.47;0.47;;;;;;;23.79;53.71;100375.50;5209148;28;20506;-85
2022/09/13 11:49:37;;;;;;;10.63;1.85;;;;;;;23.91;52.06;100378.91;5230252;28;20067;-86
2022/09/13 11:52:16;;;;;;;0.70;0.63;;;;;;;23.93;52.89;100376.91;5173258;28;20051;-86
2022/09/13 11:55:35;;;;;;;0.40;0.40;;;;;;;24.00;52.42;100372.78;5217977;28;20116;-86
2022/09/13 11:58:14;;;;;;;0.70;0.70;;;;;;;23.92;53.33;100372.56;5156047;28;20054;-86
2022/09/13 12:00:49;;;;;;;0.30;0.30;;;;;;;23.97;53.98;100362.31;5126517;28;20472;-86
2022/09/13 12:03:26;;;;;;;1.20;1.10;;;;;;;24.09;54.00;100366.56;5188550;28;20063;-86
2022/09/13 12:06:04;;;;;;;0.57;0.57;;;;;;;24.15;54.29;100366.03;5213801;28;20074;-86
2022/09/13 12:08:39;;;;;;;0.55;0.55;;;;;;;24.24;53.44;100358.13;5210425;28;20086;-86
2022/09/13 12:11:17;;;;;;;0.73;0.73;;;;;;;24.41;53.15;100361.94;5212106;28;20032;-86